createdAt,value
2024-03-05T00:00:32.615Z,2.10
2024-03-05T00:03:41.665Z,2.10
2024-03-05T00:06:50.349Z,2.00
2024-03-05T00:09:59.916Z,1.90
2024-03-05T00:13:08.370Z,1.90
2024-03-05T00:16:16.693Z,1.90
2024-03-05T00:19:25.971Z,1.90
2024-03-05T00:22:34.126Z,1.90
2024-03-05T00:25:43.893Z,1.80
2024-03-05T00:28:52.585Z,1.80
2024-03-05T00:32:00.755Z,1.80
2024-03-05T00:35:10.275Z,1.80
2024-03-05T00:38:25.092Z,1.70
2024-03-05T00:41:42.931Z,1.70
2024-03-05T00:44:51.074Z,1.60
2024-03-05T00:47:59.405Z,1.60
2024-03-05T00:51:07.834Z,1.70
2024-03-05T00:54:16.011Z,1.60
2024-03-05T00:57:25.699Z,1.50
2024-03-05T01:00:33.954Z,1.50
2024-03-05T01:03:42.070Z,1.50
2024-03-05T01:06:50.223Z,1.50
2024-03-05T01:09:58.431Z,1.50
2024-03-05T01:13:08.915Z,1.40
2024-03-05T01:16:17.143Z,1.30
2024-03-05T01:19:25.429Z,1.40
2024-03-05T01:22:33.681Z,1.40
2024-03-05T01:25:42.003Z,1.30
2024-03-05T01:28:51.738Z,1.20
2024-03-05T01:32:01.304Z,1.30
2024-03-05T01:35:12.245Z,1.20
2024-03-05T01:38:20.583Z,1.20
2024-03-05T01:41:28.968Z,1.20
2024-03-05T01:44:38.542Z,1.30
2024-03-05T01:47:47.568Z,1.30
2024-03-05T01:50:56.493Z,1.30
2024-03-05T01:54:07.026Z,1.20
2024-03-05T01:57:15.363Z,1.30
2024-03-05T02:00:25.180Z,1.20
2024-03-05T02:03:34.331Z,1.20
2024-03-05T02:06:45.002Z,1.20
2024-03-05T02:09:55.309Z,1.20
2024-03-05T02:13:03.568Z,1.30
2024-03-05T02:16:13.574Z,1.30
2024-03-05T02:19:22.513Z,1.20
2024-03-05T02:22:32.107Z,1.20
2024-03-05T02:25:40.599Z,1.20
2024-03-05T02:28:50.931Z,1.10
2024-03-05T02:32:00.492Z,1.10
2024-03-05T02:35:09.369Z,1.00
2024-03-05T02:38:19.157Z,1.10
2024-03-05T02:41:27.395Z,1.10
2024-03-05T02:44:35.666Z,1.10
2024-03-05T02:47:44.161Z,1.00
2024-03-05T02:50:52.415Z,1.00
2024-03-05T02:54:02.053Z,1.00
2024-03-05T02:57:10.523Z,1.00
2024-03-05T03:00:21.294Z,0.90
2024-03-05T03:03:30.517Z,0.90
2024-03-05T03:06:38.780Z,0.90
2024-03-05T03:09:49.402Z,0.90
2024-03-05T03:12:57.628Z,0.90
2024-03-05T03:16:07.426Z,0.90
2024-03-05T03:19:15.695Z,0.90
2024-03-05T03:22:23.887Z,0.80
2024-03-05T03:25:35.813Z,0.80
2024-03-05T03:28:45.395Z,0.80
2024-03-05T03:31:54.773Z,0.80
2024-03-05T03:35:04.975Z,0.80
2024-03-05T03:38:13.199Z,0.80
2024-03-05T03:41:22.707Z,0.80
2024-03-05T03:44:30.893Z,0.80
2024-03-05T03:47:39.094Z,0.80
2024-03-05T03:50:47.389Z,0.80
2024-03-05T03:53:55.532Z,0.80
2024-03-05T03:57:05.279Z,0.80
2024-03-05T04:00:18.308Z,0.80
2024-03-05T04:03:27.102Z,0.80
2024-03-05T04:06:35.733Z,0.70
2024-03-05T04:09:44.135Z,0.80
2024-03-05T04:12:53.692Z,0.80
2024-03-05T04:16:01.972Z,0.70
2024-03-05T04:19:10.149Z,0.70
2024-03-05T04:22:18.896Z,0.70
2024-03-05T04:25:35.570Z,0.70
2024-03-05T04:28:53.399Z,0.70
2024-03-05T04:32:09.758Z,0.70
2024-03-05T04:35:18.944Z,0.70
2024-03-05T04:38:27.673Z,0.70
2024-03-05T04:41:35.827Z,0.60
2024-03-05T04:44:46.251Z,0.60
2024-03-05T04:47:54.621Z,0.60
2024-03-05T04:51:02.841Z,0.70
2024-03-05T04:54:12.112Z,0.60
2024-03-05T04:57:21.085Z,0.60
2024-03-05T05:00:30.923Z,0.60
2024-03-05T05:03:39.257Z,0.60
2024-03-05T05:06:50.712Z,0.60
2024-03-05T05:09:58.910Z,0.60
2024-03-05T05:13:07.604Z,0.50
2024-03-05T05:16:17.278Z,0.50
2024-03-05T05:19:26.552Z,0.50
2024-03-05T05:22:34.740Z,0.50
2024-03-05T05:25:43.647Z,0.50
2024-03-05T05:28:52.251Z,0.50
2024-03-05T05:32:04.292Z,0.60
2024-03-05T05:35:12.539Z,0.50
2024-03-05T05:38:20.719Z,0.50
2024-03-05T05:41:29.018Z,0.50
2024-03-05T05:44:37.141Z,0.50
2024-03-05T05:47:53.034Z,0.60
2024-03-05T05:51:02.116Z,0.60
2024-03-05T05:54:11.865Z,0.60
2024-03-05T05:57:20.275Z,0.50
2024-03-05T06:00:37.809Z,0.60
2024-03-05T06:03:47.709Z,0.50
2024-03-05T06:06:59.960Z,0.60
2024-03-05T06:10:11.447Z,0.60
2024-03-05T06:13:19.891Z,0.60
2024-03-05T06:16:28.290Z,0.60
2024-03-05T06:19:38.855Z,0.70
2024-03-05T06:22:47.790Z,0.80
2024-03-05T06:25:56.649Z,0.80
2024-03-05T06:29:07.794Z,0.90
2024-03-05T06:32:16.454Z,0.90
2024-03-05T06:35:28.478Z,1.00
2024-03-05T06:38:37.176Z,1.10
2024-03-05T06:41:49.517Z,1.10
2024-03-05T06:45:06.940Z,1.20
2024-03-05T06:48:23.963Z,2.60
2024-03-05T06:51:42.968Z,4.90
2024-03-05T06:55:08.398Z,5.60
2024-03-05T06:58:16.587Z,6.10
2024-03-05T07:01:24.940Z,6.90
2024-03-05T07:04:33.410Z,8.60
2024-03-05T07:07:43.059Z,9.80
2024-03-05T07:10:51.791Z,9.30
2024-03-05T07:14:00.151Z,9.50
2024-03-05T07:17:09.599Z,9.50
2024-03-05T07:20:23.640Z,9.90
2024-03-05T07:23:33.295Z,8.90
2024-03-05T07:26:46.978Z,8.70
2024-03-05T07:30:01.177Z,6.90
2024-03-05T07:33:10.307Z,5.50
2024-03-05T07:36:18.731Z,4.90
2024-03-05T07:39:28.488Z,4.00
2024-03-05T07:42:39.205Z,3.70
2024-03-05T07:45:49.481Z,3.40
2024-03-05T07:48:58.809Z,3.20
2024-03-05T07:52:07.706Z,3.20
2024-03-05T07:55:23.765Z,3.30
2024-03-05T07:58:34.383Z,3.40
2024-03-05T08:01:42.943Z,3.30
2024-03-05T08:04:51.449Z,3.30
2024-03-05T08:08:01.059Z,3.50
2024-03-05T08:11:13.336Z,3.60
2024-03-05T08:14:21.760Z,3.60
2024-03-05T08:17:29.951Z,3.40
2024-03-05T08:20:39.252Z,3.40
2024-03-05T08:23:47.441Z,3.40
2024-03-05T08:26:59.153Z,3.60
2024-03-05T08:30:10.167Z,4.40
2024-03-05T08:33:21.341Z,4.10
2024-03-05T08:36:33.076Z,5.30
2024-03-05T08:39:41.385Z,5.30
2024-03-05T08:42:52.458Z,4.90
2024-03-05T08:46:00.658Z,5.30
2024-03-05T08:49:09.994Z,5.40
2024-03-05T08:52:18.689Z,4.90
2024-03-05T08:55:27.649Z,5.20
2024-03-05T08:58:37.684Z,5.00
2024-03-05T09:01:46.084Z,4.90
2024-03-05T09:04:54.482Z,5.60
2024-03-05T09:08:03.258Z,5.10
2024-03-05T09:11:12.692Z,7.30
2024-03-05T09:14:22.890Z,6.10
2024-03-05T09:17:31.202Z,7.60
2024-03-05T09:20:39.405Z,7.90
2024-03-05T09:23:47.653Z,8.10
2024-03-05T09:26:55.849Z,7.30
2024-03-05T09:30:06.379Z,7.30
2024-03-05T09:33:14.843Z,7.40
2024-03-05T09:36:24.342Z,7.40
2024-03-05T09:39:32.498Z,7.00
2024-03-05T09:42:41.001Z,7.50
2024-03-05T09:45:50.744Z,7.80
2024-03-05T09:49:07.417Z,8.00
2024-03-05T09:52:19.722Z,7.90
2024-03-05T09:55:28.798Z,7.60
2024-03-05T09:58:39.997Z,7.90
2024-03-05T10:01:51.322Z,7.60
2024-03-05T10:05:03.254Z,7.70
2024-03-05T10:08:12.377Z,7.40
2024-03-05T10:11:20.772Z,7.60
2024-03-05T10:14:29.026Z,7.20
2024-03-05T10:17:44.872Z,7.40
2024-03-05T10:20:53.265Z,7.60
2024-03-05T10:24:03.405Z,7.90
2024-03-05T10:27:12.818Z,7.60
2024-03-05T10:30:26.146Z,7.30
2024-03-05T10:33:35.740Z,7.90
2024-03-05T10:36:44.972Z,7.90
2024-03-05T10:39:56.560Z,8.00
2024-03-05T10:43:06.969Z,7.40
2024-03-05T10:46:16.069Z,7.40
2024-03-05T10:49:27.809Z,7.40
2024-03-05T10:52:36.168Z,7.60
2024-03-05T10:55:45.519Z,7.50
2024-03-05T10:59:11.277Z,7.70
2024-03-05T11:02:21.197Z,7.90
2024-03-05T11:05:33.750Z,7.60
2024-03-05T11:08:45.508Z,7.60
2024-03-05T11:11:58.688Z,7.70
2024-03-05T11:15:09.170Z,7.40
2024-03-05T11:18:29.995Z,7.10
2024-03-05T11:21:42.996Z,7.60
2024-03-05T11:24:56.602Z,7.60
2024-03-05T11:28:05.072Z,7.40
2024-03-05T11:31:19.955Z,7.10
2024-03-05T11:34:30.328Z,6.80
2024-03-05T11:37:52.733Z,6.70
2024-03-05T11:41:01.085Z,6.90
2024-03-05T11:44:09.464Z,6.60
2024-03-05T11:47:22.150Z,7.00
2024-03-05T11:50:31.171Z,6.90
2024-03-05T11:53:42.131Z,6.80
2024-03-05T11:56:59.521Z,6.40
2024-03-05T12:00:17.553Z,6.40
2024-03-05T12:03:26.141Z,6.50
2024-03-05T12:06:35.142Z,6.50
2024-03-05T12:09:45.225Z,6.10
2024-03-05T12:12:53.508Z,6.30
2024-03-05T12:16:11.115Z,6.20
2024-03-05T12:19:19.388Z,5.90
2024-03-05T12:22:27.689Z,5.90
2024-03-05T12:25:37.656Z,5.90
2024-03-05T12:28:45.900Z,5.80
2024-03-05T12:31:54.639Z,5.80
2024-03-05T12:35:03.380Z,5.90
2024-03-05T12:38:12.418Z,5.70
2024-03-05T12:41:22.360Z,5.50
2024-03-05T12:44:31.739Z,5.60
2024-03-05T12:47:40.402Z,5.70
2024-03-05T12:50:50.675Z,5.70
2024-03-05T12:54:08.857Z,5.80
2024-03-05T12:57:27.225Z,5.50
2024-03-05T13:00:35.797Z,5.60
2024-03-05T13:03:44.600Z,5.40
2024-03-05T13:06:53.227Z,5.40
2024-03-05T13:10:01.614Z,5.40
2024-03-05T13:13:11.903Z,5.40
2024-03-05T13:16:20.133Z,5.30
2024-03-05T13:19:28.416Z,5.30
2024-03-05T13:22:36.664Z,5.30
2024-03-05T13:25:44.912Z,5.40
2024-03-05T13:28:54.552Z,5.30
2024-03-05T13:32:02.768Z,5.30
2024-03-05T13:35:11.112Z,5.10
2024-03-05T13:38:19.439Z,5.30
2024-03-05T13:41:29.657Z,5.30
2024-03-05T13:44:39.310Z,5.30
2024-03-05T13:47:48.432Z,5.30
2024-03-05T13:50:56.748Z,5.30
2024-03-05T13:54:07.451Z,5.20
2024-03-05T13:57:17.783Z,5.10
2024-03-05T14:00:32.661Z,5.30
2024-03-05T14:03:40.948Z,5.10
2024-03-05T14:06:50.744Z,5.30
2024-03-05T14:09:59.133Z,5.10
2024-03-05T14:13:14.342Z,5.20
2024-03-05T14:16:24.928Z,5.20
2024-03-05T14:19:33.283Z,5.10
2024-03-05T14:22:43.962Z,5.20
2024-03-05T14:25:53.601Z,5.30
2024-03-05T14:29:04.784Z,5.00
2024-03-05T14:32:14.623Z,5.00
2024-03-05T14:35:23.787Z,5.00
2024-03-05T14:38:34.314Z,4.90
2024-03-05T14:41:42.888Z,4.80
2024-03-05T14:44:51.012Z,4.80
2024-03-05T14:48:01.433Z,4.80
2024-03-05T14:51:11.694Z,4.80
2024-03-05T14:54:19.926Z,4.70
2024-03-05T14:57:28.277Z,4.70
2024-03-05T15:00:37.626Z,4.70
2024-03-05T15:03:48.109Z,4.60
2024-03-05T15:06:56.267Z,4.60
2024-03-05T15:10:07.315Z,4.60
2024-03-05T15:13:15.821Z,4.60
2024-03-05T15:16:27.154Z,4.60
2024-03-05T15:19:37.072Z,4.50
2024-03-05T15:22:49.592Z,4.40
2024-03-05T15:25:57.949Z,4.50
2024-03-05T15:29:06.283Z,4.40
2024-03-05T15:32:14.573Z,4.40
2024-03-05T15:35:26.871Z,4.40
2024-03-05T15:38:35.392Z,4.30
2024-03-05T15:41:43.639Z,4.30
2024-03-05T15:44:52.482Z,4.20
2024-03-05T15:48:01.232Z,4.20
2024-03-05T15:51:12.133Z,4.20
2024-03-05T15:54:21.477Z,4.10
2024-03-05T15:57:42.852Z,4.00
2024-03-05T16:00:50.031Z,4.00
2024-03-05T16:04:21.880Z,4.00
2024-03-05T16:07:39.809Z,4.00
2024-03-05T16:10:49.685Z,3.90
2024-03-05T16:13:58.092Z,3.90
2024-03-05T16:17:07.122Z,3.90
2024-03-05T16:20:17.922Z,3.80
2024-03-05T16:23:27.573Z,3.80
2024-03-05T16:26:36.057Z,3.80
2024-03-05T16:29:44.222Z,3.70
2024-03-05T16:32:55.888Z,3.70
2024-03-05T16:36:07.990Z,3.70
2024-03-05T16:39:20.651Z,3.60
2024-03-05T16:42:30.571Z,3.60
2024-03-05T16:45:39.316Z,3.60
2024-03-05T16:48:48.132Z,3.60
2024-03-05T16:51:56.738Z,3.50
2024-03-05T16:55:07.449Z,3.40
2024-03-05T16:58:18.933Z,3.30
2024-03-05T17:01:28.730Z,3.30
2024-03-05T17:04:37.508Z,3.30
2024-03-05T17:07:49.088Z,3.30
2024-03-05T17:11:00.004Z,3.20
2024-03-05T17:14:09.773Z,3.10
2024-03-05T17:17:19.675Z,3.10
2024-03-05T17:20:28.563Z,3.00
2024-03-05T17:23:43.567Z,3.00
2024-03-05T17:26:53.094Z,3.10
2024-03-05T17:30:02.023Z,3.00
2024-03-05T17:33:14.856Z,3.00
2024-03-05T17:36:23.800Z,3.00
2024-03-05T17:39:32.082Z,2.90
2024-03-05T17:42:44.152Z,2.90
2024-03-05T17:45:52.381Z,2.80
2024-03-05T17:49:00.912Z,2.80
2024-03-05T17:52:10.009Z,2.80
2024-03-05T17:55:19.332Z,2.80
2024-03-05T17:58:30.590Z,2.70
2024-03-05T18:01:41.474Z,2.70
2024-03-05T18:04:50.195Z,2.70
2024-03-05T18:07:58.737Z,2.80
2024-03-05T18:11:07.787Z,2.70
2024-03-05T18:14:17.729Z,2.60
2024-03-05T18:17:26.499Z,2.60
2024-03-05T18:20:36.181Z,2.60
2024-03-05T18:23:48.123Z,2.50
2024-03-05T18:26:56.617Z,2.50
2024-03-05T18:30:10.837Z,2.50
2024-03-05T18:33:21.244Z,2.50
2024-03-05T18:36:30.971Z,2.40
2024-03-05T18:39:39.687Z,2.40
2024-03-05T18:42:48.751Z,2.30
2024-03-05T18:46:04.658Z,2.40
2024-03-05T18:49:14.178Z,2.40
2024-03-05T18:52:22.334Z,2.40
2024-03-05T18:55:31.562Z,2.30
2024-03-05T18:58:42.550Z,2.30
2024-03-05T19:01:52.902Z,2.30
2024-03-05T19:05:02.643Z,2.20
2024-03-05T19:08:14.088Z,2.20
2024-03-05T19:11:22.700Z,2.10
2024-03-05T19:14:33.398Z,2.20
2024-03-05T19:17:44.958Z,2.20
2024-03-05T19:20:53.290Z,2.20
2024-03-05T19:24:01.614Z,2.10
2024-03-05T19:27:15.527Z,2.10
2024-03-05T19:30:23.986Z,2.00
2024-03-05T19:33:33.808Z,2.00
2024-03-05T19:36:43.790Z,2.00
2024-03-05T19:39:52.339Z,2.00
2024-03-05T19:43:00.586Z,2.00
2024-03-05T19:46:09.199Z,1.90
2024-03-05T19:49:18.770Z,2.00
2024-03-05T19:52:27.514Z,2.00
2024-03-05T19:55:38.422Z,2.00
2024-03-05T19:58:47.105Z,2.00
2024-03-05T20:01:56.512Z,2.00
2024-03-05T20:05:07.711Z,2.10
2024-03-05T20:08:18.307Z,2.10
2024-03-05T20:11:27.259Z,2.10
2024-03-05T20:14:36.645Z,2.10
2024-03-05T20:17:45.393Z,2.10
2024-03-05T20:20:55.208Z,2.10
2024-03-05T20:24:03.393Z,2.20
2024-03-05T20:27:15.938Z,2.30
2024-03-05T20:30:25.682Z,2.30
2024-03-05T20:33:34.139Z,2.30
2024-03-05T20:36:44.636Z,2.30
2024-03-05T20:39:55.947Z,2.30
2024-03-05T20:43:07.412Z,2.30
2024-03-05T20:46:16.957Z,2.40
2024-03-05T20:49:25.310Z,2.40
2024-03-05T20:52:35.702Z,2.40
2024-03-05T20:55:45.747Z,2.40
2024-03-05T20:58:57.398Z,2.40
2024-03-05T21:02:10.739Z,2.40
2024-03-05T21:05:20.938Z,2.40
2024-03-05T21:08:30.460Z,2.50
2024-03-05T21:11:39.794Z,2.40
2024-03-05T21:14:48.419Z,2.50
2024-03-05T21:17:58.790Z,2.40
2024-03-05T21:21:08.368Z,2.50
2024-03-05T21:24:17.890Z,2.50
2024-03-05T21:27:26.134Z,2.50
2024-03-05T21:30:34.309Z,2.40
2024-03-05T21:33:43.734Z,2.50
2024-03-05T21:36:52.160Z,2.50
2024-03-05T21:40:01.634Z,2.40
2024-03-05T21:43:09.907Z,2.40
2024-03-05T21:46:18.213Z,2.40
2024-03-05T21:49:26.470Z,2.40
2024-03-05T21:52:34.727Z,2.50
2024-03-05T21:55:44.388Z,2.50
2024-03-05T21:58:52.831Z,2.50
2024-03-05T22:02:01.077Z,2.50
2024-03-05T22:05:10.210Z,2.50
2024-03-05T22:08:18.601Z,2.50
2024-03-05T22:11:28.835Z,2.50
2024-03-05T22:14:37.133Z,2.50
2024-03-05T22:17:45.302Z,2.50
2024-03-05T22:20:54.697Z,2.60
2024-03-05T22:24:03.543Z,2.60
2024-03-05T22:27:13.129Z,2.50
2024-03-05T22:30:21.622Z,2.60
2024-03-05T22:33:29.767Z,2.60
2024-03-05T22:36:39.362Z,2.60
2024-03-05T22:39:48.423Z,2.60
2024-03-05T22:42:58.055Z,2.60
2024-03-05T22:46:06.679Z,2.70
2024-03-05T22:49:15.376Z,2.70
2024-03-05T22:52:23.558Z,2.70
2024-03-05T22:55:31.741Z,2.70
2024-03-05T22:58:41.393Z,2.70
2024-03-05T23:01:49.638Z,2.70
2024-03-05T23:04:57.898Z,2.70
2024-03-05T23:08:10.502Z,2.70
2024-03-05T23:11:20.289Z,2.70
2024-03-05T23:14:31.610Z,2.70
2024-03-05T23:17:39.745Z,2.80
2024-03-05T23:20:48.072Z,2.70
2024-03-05T23:23:56.408Z,2.80
2024-03-05T23:27:04.586Z,2.70
2024-03-05T23:30:17.537Z,2.70
2024-03-05T23:33:25.850Z,2.70
2024-03-05T23:36:34.115Z,2.70
2024-03-05T23:39:42.214Z,2.70
2024-03-05T23:42:50.971Z,2.70
2024-03-05T23:46:02.143Z,2.70
2024-03-05T23:49:10.298Z,2.70
2024-03-05T23:52:18.802Z,2.70
2024-03-05T23:55:27.038Z,2.70
2024-03-05T23:58:35.220Z,2.80
